Αρχική σελίδα
METAR-TAF:

METAR-TAF

Αεροδρόμια :

Βάλις, Γαλλία

γεωγραφικό πλάτος: 13-14S, γεωγραφικό μήκος: 176-10W, υψόμετρο: 23 μ

METAR: λείπει

Χρόνος: 13:48 (01:48 UTC)

Πρόγνωση Καιρού

Η αναφορά έγινε 2 ώρες και 48 λεπτά πριν, στις 23:00 UTC
Η πρόγνωση ισχύει από τις 20 στις 00 UTC έως τις 20 στις 24 UTC
Άνεμος 10 kt από Α
Ορατότητα 10 χλμ και άνω
Λίγα νέφη σε ύψος 2000 πόδια
Διάσπαρτα νέφη σε ύψος 4000 πόδια
Προσωρινά
από 20 στις 12 UTC έως τις 20 στις 18 UTC
Λίγα νέφη σε ύψος 2000 πόδια, Σωρείτες καθέτου αναπτύξεως.
Όμβροι

TAF: NLWW 192300Z 2000/2024 08010KT 9999 FEW020 SCT040 TEMPO 2012/2018 SHRA FEW020TCU

Μετεωρολογικές αναφορές και προγνώσεις για περισσότερα από 4000 αεροδρόμια (δελτία METAR και TAF).

Οι διαθέσιμοι σταθμοί απεικονίζονται στο χάρτη με κίτρινες και κόκκινες κουκκίδες.

Μετακινήστε το ποντίκι πάνω από τις κουκκίδες για να δείτε το όνομα του σταθμού.

Στη συνέχεια, κάντε κλικ για να δείτε τις μετεωρολογικές αναφορές και τις προγνώσεις καιρού.

Για να αλλάξετε το χάρτη: κάντε κλικ στα πράσινα κουμπιά με τον μαύρο σταυρό για να ζουμάρετε, στο πράσινο κουμπί με την παύλα για να αφαιρέσετε το ζουμ ή στα πράσινα βέλη για να αντιπαραβάλλετε χάρτες.


METAR-TAF: